Tiempo atmosférico en la estación meteorológica de Ballobar, Huesca (178 m.)

Fecha
DESCASC
Temp. máxima en grados centígrados (hora)
DESCASC
Temp. mínima en grados centígrados (hora)
DESCASC
Temp. media en grados centígrados
DESCASC
Racha de viento máxima en m/sg (hora)
DESCASC
Velocidad máxima media en intervalos de 10 minutos(hora)
DESCASC
Precipitaciones diarias en mm
DESCASC
Precipitaciones de 00:00 a 06:00 en mm
DESCASC
Precipitaciones de 06:00 a 12:00 en mm
DESCASC
Precipitaciones de 12:00 a 18:00 en mm
DESCASC
Precipitaciones de 18:00 a 24:00 en mm
DESCASC
19-10-2017 17 (18:10) 10.8 (08:10) 13.9 7.22 (22:30) 4.17 (22:20) 0.2 0.2 0 0 0
18-10-2017 21.3 (13:10) 13.7 (17:50) 17.5 18.61 (15:30) 9.17 (14:00) 59.4 0.4 0.4 56.4 2.2
17-10-2017 25.3 (15:40) 12.4 (07:00) 18.8 9.17 (16:00) 5.83 (15:10) 0 0 0 0 0
16-10-2017 26.5 (17:40) 12.8 (09:00) 19.7 7.22 (13:40) 4.72 (15:50) 0 0 0 0 0
15-10-2017 26.7 (17:00) 15.4 (00:00) 21.1 8.89 (14:20) 5 (18:20) 0 0 0 0 0
14-10-2017 26.3 (15:00) 12.4 (00:00) 19.3 8.89 (16:40) 5.56 (16:00) 0 0 0 0 0
13-10-2017 26.8 (17:10) 11.4 (00:00) 19.1 5.83 (18:30) 3.61 (18:50) 0 0 0 0 0
12-10-2017 25.7 (16:40) 10.9 (00:00) 18.3 3.89 (15:10) 2.5 (13:50) 0 0 0 0 0
11-10-2017 26.5 (17:30) 8.9 (00:00) 17.7 5 (14:30) 3.61 (13:50) 0 0 0 0 0
10-10-2017 25.2 (17:10) 7.8 (00:00) 16.5 4.44 (16:20) 3.06 (17:30) 0 0 0 0 0
09-10-2017 24.6 (17:30) 7 (00:00) 15.8 4.72 (12:50) 3.61 (18:20) 0 0 0 0 0
08-10-2017 25.7 (16:40) 8.1 (00:00) 16.9 5.83 (15:40) 3.61 (15:20) 0 0 0 0 0
07-10-2017 24.1 (18:10) 8.7 (00:00) 16.4 6.39 (14:10) 3.89 (04:40) 0 0 0 0 0
06-10-2017 28.8 (17:10) 13.1 (00:00) 20.9 10.56 (19:00) 7.22 (19:00) 0 0 0 0 0
05-10-2017 29 (16:40) 13.3 (00:00) 21.2 5.28 (23:50) 3.89 (23:50) 0 0 0 0 0
04-10-2017 27.5 (16:50) 13.9 (00:00) 20.7 5 (15:40) 2.78 (15:30) 0 0 0 0 0
03-10-2017 25.1 (16:20) 14.7 (00:00) 19.9 5.28 (14:20) 2.78 (14:20) 0 0 0 0 0
02-10-2017 27.9 (16:50) 15 (00:00) 21.4 5.28 (18:20) 3.89 (18:50) 0 0 0 0 0
01-10-2017 22.6 (15:30) 15.1 (00:00) 18.9 6.11 (11:30) 3.89 (11:40) 0 0 0 0 0
30-09-2017 20.7 (16:40) 13.7 (00:00) 17.2 4.17 (12:00) 2.5 (16:30) 0.2 0 0 0.2 0
29-09-2017 27.6 (17:00) 13.2 (00:00) 20.4 6.11 (13:20) 4.17 (15:50) 0 0 0 0 0
28-09-2017 27.7 (17:10) 13.2 (00:00) 20.5 7.22 (18:40) 5 (18:40) 0 0 0 0 0
27-09-2017 26.9 (17:20) 11.9 (00:00) 19.4 8.61 (19:00) 5 (19:00) 0 0 0 0 0
26-09-2017 -- (--) -- (--) -- -- (--) -- (--) -- -- -- -- 0
25-09-2017 -- (--) -- (--) -- -- (--) -- (--) -- -- -- -- --
24-09-2017 -- (--) -- (--) -- -- (--) -- (--) -- -- -- -- --
23-09-2017 -- (--) -- (--) -- -- (--) -- (--) -- -- -- -- --
22-09-2017 -- (--) -- (--) -- -- (--) -- (--) -- 0 -- -- --
21-09-2017 27.7 (17:30) 9.3 (00:00) 18.5 7.22 (18:30) 4.44 (13:20) 0 0 0 0 0
20-09-2017 23.9 (16:40) 7.2 (00:00) 15.5 5.28 (16:30) 3.33 (15:30) 0 0 0 0 0

Gráficas

Temp. máximas Temp. mínimas Temp. medias Precipitaciones Rachas de viento máximas Velocidades máximas media en intervalos de 10 minutos

Datos horarios

Fecha y hora oficial Temperatura (ºC) Velocidad del viento (km/h) Dirección del viento Racha (km/h) Dirección de racha Precipitación (mm) Presión (hPa) Tendencia (hPa) Humedad (%)
2017-10-19 23:00:00 15.7 9 Norte 26 Noroeste 0 -- -- 74
2017-10-19 22:00:00 16.4 12 Noroeste 23 Noroeste 0 -- -- 73
2017-10-19 21:00:00 16.5 9 Noroeste 18 Noroeste 0 -- -- 76
2017-10-19 20:00:00 16.1 6 Sudoeste 11 Sudoeste 0 -- -- 83
2017-10-19 19:00:00 16.7 4 Oeste 15 Noroeste 0 -- -- 78
2017-10-19 18:00:00 16.9 10 Noroeste 15 Noroeste 0 -- -- 77
2017-10-19 17:00:00 16.4 3 Nordeste 10 Nordeste 0 -- -- 83
2017-10-19 16:00:00 16.2 6 Nordeste 10 Este 0 -- -- 85
2017-10-19 15:00:00 15.6 2 Nordeste 11 Nordeste 0 -- -- 84
2017-10-19 14:00:00 15.6 5 Nordeste 8 Nordeste 0 -- -- 82
2017-10-19 13:00:00 15.2 5 Nordeste 13 Oeste 0 -- -- 83
2017-10-19 12:00:00 14.2 10 Oeste 14 Oeste 0 -- -- 85
2017-10-19 11:00:00 12.8 7 Sudoeste 12 Sudoeste 0 -- -- 87
2017-10-19 10:00:00 11.8 7 Sudoeste 14 Sudoeste 0 -- -- 89
2017-10-19 09:00:00 11.1 7 Sudoeste 17 Sudoeste 0 -- -- 90
2017-10-19 08:00:00 10.9 10 Sudoeste 18 Sudoeste 0 -- -- 89
2017-10-19 07:00:00 12 7 Oeste 14 Oeste 0 -- -- 88
2017-10-19 06:00:00 12.2 9 Sudoeste 15 Sudoeste 0 -- -- 89
2017-10-19 05:00:00 12.7 6 Sur 21 Sudoeste 0 -- -- 89
2017-10-19 04:00:00 13.2 10 Sudoeste 15 Sudoeste 0 -- -- 95
2017-10-19 03:00:00 14.3 11 Sudoeste 14 Oeste 0 -- -- 96
2017-10-19 02:00:00 14.5 3 Oeste 7 Sudoeste 0 -- -- 96
2017-10-19 01:00:00 14.6 3 Este 5 Nordeste 0.2 -- -- 96
2017-10-19 00:00:00 14.6 8 Nordeste 12 Este 1 -- -- 95
2017-10-18 23:00:00 14.9 9 Este 18 Este 0 -- -- 94
2017-10-18 22:00:00 14.8 14 Este 29 Este 0.2 -- -- 96
2017-10-18 21:00:00 14.5 14 Este 23 Este 0 -- -- 98
2017-10-18 20:00:00 14.5 10 Nordeste 16 Este 0.2 -- -- 97
2017-10-18 19:00:00 14 13 Nordeste 19 Este 0.8 -- -- 97
2017-10-18 18:00:00 13.9 10 Nordeste 16 Este 3.6 -- -- 97
2017-10-18 17:00:00 14.2 6 Sudoeste 34 Oeste 28.2 -- -- 96
2017-10-18 16:00:00 15.2 8 Sur 67 Oeste 24 -- -- 91
2017-10-18 15:00:00 19.7 21 Este 36 Este 0 -- -- 78
2017-10-18 14:00:00 20.4 33 Este 50 Este 0.4 -- -- 75
2017-10-18 13:00:00 21.2 24 Este 39 Este 0.2 -- -- 71
2017-10-18 12:00:00 19.9 14 Este 26 Sudeste 0 -- -- 81
2017-10-18 11:00:00 18.3 14 Este 23 Este 0 -- -- 87
2017-10-18 10:00:00 17.1 12 Este 25 Este 0.4 -- -- 93
2017-10-18 09:00:00 16.5 10 Nordeste 18 Este 0 -- -- 91
2017-10-18 08:00:00 16.4 7 Nordeste 14 Nordeste 0 -- -- 89
2017-10-18 07:00:00 16.4 7 Este 20 Este 0 -- -- 90
2017-10-18 06:00:00 16.7 16 Este 26 Este 0 -- -- 88
2017-10-18 05:00:00 16.6 18 Este 23 Este 0.4 -- -- 87
2017-10-18 04:00:00 16.9 16 Nordeste 27 Este 0 -- -- 83
2017-10-18 03:00:00 16.6 14 Nordeste 23 Este 0 -- -- 85
2017-10-18 02:00:00 17.4 13 Este 26 Este 0 -- -- 84
2017-10-18 01:00:00 17.8 18 Este 25 Este 0 -- -- 80
2017-10-18 00:00:00 18.7 12 Este 19 Este 0 -- -- 74
2017-10-17 23:00:00 19 9 Este 21 Este 0 -- -- 74
2017-10-17 22:00:00 19.7 12 Este 22 Este 0 -- -- 71
2017-10-17 21:00:00 19.3 13 Este 28 Este 0 -- -- 72
2017-10-17 20:00:00 20.5 14 Este 21 Este 0 -- -- 67
2017-10-17 19:00:00 21.9 10 Este 28 Este 0 -- -- 60
2017-10-17 18:00:00 24 15 Sudeste 28 Este 0 -- -- 51
2017-10-17 17:00:00 25.2 17 Este 31 Este 0 -- -- 46
2017-10-17 16:00:00 25.2 17 Este 33 Este 0 -- -- 46
2017-10-17 15:00:00 24.8 16 Este 28 Este 0 -- -- 49
2017-10-17 14:00:00 23.1 13 Este 24 Este 0 -- -- 56
2017-10-17 13:00:00 22.3 13 Este 27 Este 0 -- -- 59
2017-10-17 12:00:00 20.1 9 Este 15 Este 0 -- -- 68
2017-10-17 11:00:00 16.3 6 Nordeste 12 Nordeste 0 -- -- 81
2017-10-17 10:00:00 13.6 9 Nordeste 12 Nordeste 0 -- -- 87
2017-10-17 09:00:00 13.5 9 Nordeste 13 Este 0 -- -- 88
2017-10-17 08:00:00 13.2 7 Este 12 Este 0 -- -- 91
2017-10-17 07:00:00 12.4 8 Nordeste 14 Sudeste 0 -- -- 89
2017-10-17 06:00:00 13.2 3 Nordeste 6 Este 0 -- -- 93
2017-10-17 05:00:00 13.6 5 Este 14 Nordeste 0 -- -- 90
2017-10-17 04:00:00 15 6 Nordeste 11 Nordeste 0 -- -- 88
2017-10-17 03:00:00 14.6 6 Nordeste 13 Este 0 -- -- 88
2017-10-17 02:00:00 15.7 10 Nordeste 16 Este 0 -- -- 85
2017-10-17 01:00:00 16.1 10 Nordeste 15 Nordeste 0 -- -- 86
2017-10-17 00:00:00 17.3 7 Este 17 Este 0 -- -- 81
2017-10-16 23:00:00 18.2 3 Norte 15 Sudeste 0 -- -- 78
2017-10-16 22:00:00 19.2 4 Sudeste 16 Este 0 -- -- 74
2017-10-16 21:00:00 20.3 4 Sudeste 12 Sudeste 0 -- -- 69
2017-10-16 20:00:00 22 5 Sur 15 Sur 0 -- -- 62
2017-10-16 19:00:00 24.3 8 Sudeste 23 Este 0 -- -- 53
2017-10-16 18:00:00 26.2 13 Sudeste 24 Nordeste 0 -- -- 48
2017-10-16 17:00:00 26.4 14 Este 23 Este 0 -- -- 48
2017-10-16 16:00:00 26 17 Este 23 Este 0 -- -- 49
2017-10-16 15:00:00 25.2 13 Este 26 Este 0 -- -- 55
2017-10-16 14:00:00 24.3 15 Este 26 Este 0 -- -- 58
2017-10-16 13:00:00 22.9 14 Este 25 Este 0 -- -- 63
2017-10-16 12:00:00 20.9 10 Este 16 Nordeste 0 -- -- 71
2017-10-16 11:00:00 17.9 6 Nordeste 12 Nordeste 0 -- -- 83
2017-10-16 10:00:00 15.4 3 Sudeste 6 Este 0 -- -- 92
2017-10-16 09:00:00 12.8 3 Nordeste 6 Oeste 0 -- -- 94
2017-10-16 08:00:00 13.4 2 Oeste 6 Oeste 0 -- -- 94
2017-10-16 07:00:00 13.8 2 Noroeste 5 Este 0 -- -- 93
2017-10-16 06:00:00 14.8 5 Este 15 Nordeste 0 -- -- 90
2017-10-16 05:00:00 15 12 Nordeste 17 Este 0 -- -- 89
2017-10-16 04:00:00 16 10 Este 18 Nordeste 0 -- -- 89
2017-10-16 03:00:00 16.1 8 Nordeste 15 Este 0 -- -- 87
2017-10-16 02:00:00 16.8 10 Nordeste 14 Este 0 -- -- 85
2017-10-16 01:00:00 17.7 8 Nordeste 14 Este 0 -- -- 82
2017-10-16 00:00:00 18.2 8 Nordeste 19 Este 0 -- -- 79
2017-10-15 23:00:00 19.4 14 Este 24 Sudeste 0 -- -- 78
2017-10-15 22:00:00 20.5 11 Este 27 Este 0 -- -- 74
2017-10-15 21:00:00 21.1 11 Este 18 Este 0 -- -- 71
2017-10-15 20:00:00 22.3 11 Este 20 Este 0 -- -- 66
2017-10-15 19:00:00 24 10 Este 27 Este 0 -- -- 60
2017-10-15 18:00:00 25.9 15 Sudeste 28 Sudeste 0 -- -- 54
2017-10-15 17:00:00 26.7 14 Este 23 Este 0 -- -- 52
2017-10-15 16:00:00 26.2 10 Este 27 Este 0 -- -- 54
2017-10-15 15:00:00 25.5 12 Este 32 Este 0 -- -- 58
2017-10-15 14:00:00 24.8 13 Este 26 Este 0 -- -- 60
2017-10-15 13:00:00 23.8 8 Este 18 Nordeste 0 -- -- 63
2017-10-15 12:00:00 21.5 6 Este 12 Este 0 -- -- 72
2017-10-15 11:00:00 19.1 5 Nordeste 9 Nordeste 0 -- -- 80
2017-10-15 10:00:00 17.3 4 Nordeste 6 Nordeste 0 -- -- 86
2017-10-15 09:00:00 16.3 3 Nordeste 4 Noroeste 0 -- -- 89
2017-10-15 08:00:00 15.6 3 Noroeste 7 Norte 0 -- -- 90
2017-10-15 07:00:00 16.1 4 Nordeste 6 Norte 0 -- -- 86
2017-10-15 06:00:00 16.3 0 Calma 5 Noroeste 0 -- -- 88
2017-10-15 05:00:00 16.6 3 Este 15 Este 0 -- -- 86
2017-10-15 04:00:00 17 11 Nordeste 18 Nordeste 0 -- -- 86
2017-10-15 03:00:00 16.4 10 Este 14 Este 0 -- -- 89
2017-10-15 02:00:00 17.2 12 Nordeste 14 Nordeste 0 -- -- 86
2017-10-15 01:00:00 17.4 11 Nordeste 16 Nordeste 0 -- -- 84
2017-10-15 00:00:00 17.5 14 Nordeste 17 Nordeste 0 -- -- 82
2017-10-14 23:00:00 18.4 13 Nordeste 20 Este 0 -- -- 79
2017-10-14 22:00:00 19.8 15 Este 22 Este 0 -- -- 76
2017-10-14 21:00:00 21.1 13 Este 21 Este 0 -- -- 71
2017-10-14 20:00:00 21.9 12 Este 26 Sudeste 0 -- -- 68
2017-10-14 19:00:00 23.2 15 Este 25 Este 0 -- -- 64
2017-10-14 18:00:00 24.9 18 Este 28 Este 0 -- -- 58
2017-10-14 17:00:00 26 14 Sudeste 32 Este 0 -- -- 54
2017-10-14 16:00:00 26.1 20 Este 31 Este 0 -- -- 54
2017-10-14 15:00:00 26.3 13 Este 31 Este 0 -- -- 56
2017-10-14 14:00:00 24.8 14 Este 25 Este 0 -- -- 60
2017-10-14 13:00:00 23.1 8 Este 16 Este 0 -- -- 67
2017-10-14 12:00:00 20.4 6 Este 12 Este 0 -- -- 75
2017-10-14 11:00:00 17.7 5 Este 9 Este 0 -- -- 83
2017-10-14 10:00:00 14.7 4 Este 6 Sudeste 0 -- -- 91
2017-10-14 09:00:00 12.6 4 Este 6 Este 0 -- -- 95
2017-10-14 08:00:00 12.5 3 Oeste 4 Noroeste 0 -- -- 94
2017-10-14 07:00:00 13 2 Nordeste 5 Noroeste 0 -- -- 93
2017-10-14 06:00:00 13.7 0 Calma 3 Este 0 -- -- 92
2017-10-14 05:00:00 14.7 0 Calma 4 Noroeste 0 -- -- 91
2017-10-14 04:00:00 15.5 0 Calma 3 Este 0 -- -- 90
2017-10-14 03:00:00 16.1 0 Calma 4 Noroeste 0 -- -- 90
2017-10-14 02:00:00 17.1 0 Calma 5 Nordeste 0 -- -- 88
2017-10-14 01:00:00 17.8 2 Sur 6 Nordeste 0 -- -- 86
2017-10-14 00:00:00 18.9 0 Calma 15 Nordeste 0 -- -- 83
2017-10-13 23:00:00 19.9 9 Nordeste 19 Este 0 -- -- 81
2017-10-13 22:00:00 20.2 4 Nordeste 8 Sur 0 -- -- 79
2017-10-13 21:00:00 21.9 3 Sur 12 Sudeste 0 -- -- 70
2017-10-13 20:00:00 23.6 8 Sudeste 18 Este 0 -- -- 65
2017-10-13 19:00:00 26 10 Este 21 Este 0 -- -- 58
2017-10-13 18:00:00 26.7 10 Este 15 Este 0 -- -- 54
2017-10-13 17:00:00 26.7 10 Este 17 Nordeste 0 -- -- 50
2017-10-13 16:00:00 26 9 Este 17 Este 0 -- -- 55
2017-10-13 15:00:00 24.8 8 Este 14 Este 0 -- -- 59
2017-10-13 14:00:00 23.5 8 Este 13 Nordeste 0 -- -- 63
2017-10-13 13:00:00 21.5 7 Este 13 Este 0 -- -- 69
2017-10-13 12:00:00 19.3 9 Este 13 Este 0 -- -- 74
2017-10-13 11:00:00 16.1 7 Este 11 Este 0 -- -- 84
2017-10-13 10:00:00 13.7 4 Nordeste 8 Sudeste 0 -- -- 93
2017-10-13 09:00:00 11.7 2 Norte 6 Noroeste 0 -- -- 95
2017-10-13 08:00:00 11.7 0 Calma 5 Noroeste 0 -- -- 95
2017-10-13 07:00:00 12 0 Calma 6 Noroeste 0 -- -- 94
2017-10-13 06:00:00 12.4 2 Oeste 5 Noroeste 0 -- -- 94
2017-10-13 05:00:00 12.4 3 Oeste 8 Nordeste 0 -- -- 93
2017-10-13 04:00:00 12.6 2 Oeste 4 Nordeste 0 -- -- 92
2017-10-13 03:00:00 13.3 0 Calma 5 Nordeste 0 -- -- 89
2017-10-13 02:00:00 14.2 2 Noroeste 5 Noroeste 0 -- -- 89
2017-10-13 01:00:00 15.2 4 Noroeste 5 Nordeste 0 -- -- 87
2017-10-13 00:00:00 16.1 0 Calma 4 Noroeste 0 -- -- 84
2017-10-12 23:00:00 17.1 4 Oeste 8 Noroeste 0 -- -- 80
2017-10-12 22:00:00 18.5 0 Calma 8 Este 0 -- -- 76
2017-10-12 21:00:00 19.7 0 Calma 5 Oeste 0 -- -- 69
2017-10-12 20:00:00 21.6 0 Calma 6 Noroeste 0 -- -- 63
2017-10-12 19:00:00 24.8 4 Noroeste 9 Noroeste 0 -- -- 55
2017-10-12 18:00:00 25.5 5 Nordeste 10 Este 0 -- -- 54
2017-10-12 17:00:00 25.7 6 Nordeste 13 Norte 0 -- -- 53
2017-10-12 16:00:00 24.9 7 Nordeste 14 Nordeste 0 -- -- 56
2017-10-12 15:00:00 24.9 7 Nordeste 13 Este 0 -- -- 57
2017-10-12 14:00:00 23.1 7 Este 13 Este 0 -- -- 62
2017-10-12 13:00:00 21.4 5 Nordeste 11 Nordeste 0 -- -- 70
2017-10-12 12:00:00 19 3 Este 9 Nordeste 0 -- -- 70
2017-10-12 11:00:00 15.5 5 Este 8 Este 0 -- -- 80
2017-10-12 10:00:00 13.4 6 Nordeste 10 Nordeste 0 -- -- 87
2017-10-12 09:00:00 11.5 2 Nordeste 4 Nordeste 0 -- -- 94
2017-10-12 08:00:00 11.1 2 Oeste 6 Oeste 0 -- -- 94
2017-10-12 07:00:00 11.2 0 Calma 6 Oeste 0 -- -- 94
2017-10-12 06:00:00 11.5 3 Oeste 6 Oeste 0 -- -- 93
2017-10-12 05:00:00 12.2 3 Noroeste 6 Noroeste 0 -- -- 93
2017-10-12 04:00:00 12.4 0 Calma 4 Noroeste 0 -- -- 92
2017-10-12 03:00:00 12.9 3 Oeste 6 Este 0 -- -- 91
2017-10-12 02:00:00 13.8 0 Calma 6 Noroeste 0 -- -- 91
2017-10-12 01:00:00 14.3 0 Calma 6 Este 0 -- -- 85
2017-10-12 00:00:00 16.4 2 Noroeste 5 Oeste 0 -- -- 87
2017-10-11 23:00:00 17.3 2 Sudoeste 5 Sur 0 -- -- 78
2017-10-11 22:00:00 18.1 0 Calma 7 Noroeste 0 -- -- 72
2017-10-11 21:00:00 20.2 0 Calma 8 Oeste 0 -- -- 69
2017-10-11 20:00:00 21.6 5 Noroeste 8 Sudeste 0 -- -- 58
2017-10-11 19:00:00 25.2 4 Norte 9 Nordeste 0 -- -- 49
2017-10-11 18:00:00 26.3 4 Nordeste 13 Este 0 -- -- 48
2017-10-11 17:00:00 26.3 8 Este 15 Nordeste 0 -- -- 48
2017-10-11 16:00:00 25.6 10 Nordeste 18 Este 0 -- -- 48
2017-10-11 15:00:00 25 10 Este 18 Nordeste 0 -- -- 51
2017-10-11 14:00:00 23.4 12 Este 17 Este 0 -- -- 59
2017-10-11 13:00:00 21 9 Nordeste 13 Nordeste 0 -- -- 64
2017-10-11 12:00:00 18.6 5 Este 12 Nordeste 0 -- -- 66
2017-10-11 11:00:00 15.7 8 Nordeste 13 Nordeste 0 -- -- 71
2017-10-11 10:00:00 12.1 5 Este 9 Nordeste 0 -- -- 82
2017-10-11 09:00:00 10 0 Calma 4 Sudoeste 0 -- -- 93
2017-10-11 08:00:00 9 3 Oeste 5 Noroeste 0 -- -- 92
2017-10-11 07:00:00 9.2 0 Calma 5 Oeste 0 -- -- 91
2017-10-11 06:00:00 9.8 0 Calma 6 Oeste 0 -- -- 90
2017-10-11 05:00:00 10.4 4 Oeste 9 Oeste 0 -- -- 90
2017-10-11 04:00:00 10.7 3 Oeste 5 Oeste 0 -- -- 89
2017-10-11 03:00:00 11.5 3 Nordeste 5 Nordeste 0 -- -- 86
2017-10-11 02:00:00 12.6 0 Calma 4 Oeste 0 -- -- 85
2017-10-11 01:00:00 13.8 0 Calma 2 Oeste 0 -- -- 81
2017-10-11 00:00:00 15.3 0 Calma 6 Noroeste 0 -- -- 72
2017-10-10 23:00:00 17.9 3 Nordeste 11 Nordeste 0 -- -- 65
2017-10-10 22:00:00 18.2 2 Nordeste 9 Este 0 -- -- 69
2017-10-10 21:00:00 19 0 Calma 6 Noroeste 0 -- -- 52
2017-10-10 20:00:00 21.9 4 Nordeste 14 Este 0 -- -- 47
2017-10-10 19:00:00 23.4 7 Nordeste 13 Este 0 -- -- 43
2017-10-10 18:00:00 24.9 10 Este 15 Este 0 -- -- 40
2017-10-10 17:00:00 24.9 9 Nordeste 16 Nordeste 0 -- -- 40
2017-10-10 16:00:00 24.8 9 Nordeste 15 Este 0 -- -- 42
2017-10-10 15:00:00 23.6 8 Nordeste 15 Este 0 -- -- 46
2017-10-10 14:00:00 22 7 Este 14 Este 0 -- -- 53
2017-10-10 13:00:00 20.5 9 Este 15 Este 0 -- -- 57
2017-10-10 12:00:00 18.1 5 Este 11 Este 0 -- -- 63
2017-10-10 11:00:00 15.3 8 Nordeste 11 Nordeste 0 -- -- 68
2017-10-10 10:00:00 11.8 3 Este 6 Nordeste 0 -- -- 77
2017-10-10 09:00:00 8.7 3 Noroeste 4 Noroeste 0 -- -- 91
2017-10-10 08:00:00 8.1 0 Calma 8 Noroeste 0 -- -- 90
2017-10-10 07:00:00 8.2 5 Noroeste 8 Noroeste 0 -- -- 90
2017-10-10 06:00:00 8.7 0 Calma 6 Oeste 0 -- -- 90
2017-10-10 05:00:00 8.9 6 Oeste 8 Oeste 0 -- -- 88
2017-10-10 04:00:00 9.8 2 Oeste 6 Oeste 0 -- -- 84
2017-10-10 03:00:00 10.7 3 Noroeste 5 Noroeste 0 -- -- 79
2017-10-10 02:00:00 12.2 0 Calma 6 Oeste 0 -- -- 77
2017-10-10 01:00:00 13 4 Oeste 8 Noroeste 0 -- -- 66
2017-10-10 00:00:00 14.5 4 Oeste 8 Noroeste 0 -- -- 60
2017-10-09 23:00:00 15.2 4 Oeste 8 Noroeste 0 -- -- 59
2017-10-09 22:00:00 16.2 3 Noroeste 9 Sudoeste 0 -- -- 55
2017-10-09 21:00:00 17.8 4 Oeste 8 Oeste 0 -- -- 51
2017-10-09 20:00:00 20.5 4 Nordeste 15 Este 0 -- -- 46
2017-10-09 19:00:00 23.2 11 Este 17 Este 0 -- -- 40
2017-10-09 18:00:00 24.4 9 Nordeste 13 Nordeste 0 -- -- 38
2017-10-09 17:00:00 24.4 8 Este 13 Nordeste 0 -- -- 39
2017-10-09 16:00:00 23.7 6 Nordeste 16 Este 0 -- -- 42
2017-10-09 15:00:00 23 8 Este 14 Este 0 -- -- 43
2017-10-09 14:00:00 21.5 8 Nordeste 16 Este 0 -- -- 46
2017-10-09 13:00:00 19.7 9 Este 17 Este 0 -- -- 49
2017-10-09 12:00:00 17.3 6 Nordeste 13 Este 0 -- -- 54
2017-10-09 11:00:00 14.7 4 Este 9 Nordeste 0 -- -- 66
2017-10-09 10:00:00 11.7 4 Este 9 Sudoeste 0 -- -- 73
2017-10-09 09:00:00 8 4 Noroeste 7 Noroeste 0 -- -- 83
2017-10-09 08:00:00 7.1 4 Oeste 7 Noroeste 0 -- -- 84
2017-10-09 07:00:00 7.9 3 Oeste 7 Oeste 0 -- -- 85
2017-10-09 06:00:00 8.3 2 Oeste 7 Noroeste 0 -- -- 85
2017-10-09 05:00:00 8.6 2 Este 6 Nordeste 0 -- -- 81
2017-10-09 04:00:00 9.5 3 Noroeste 6 Oeste 0 -- -- 82
2017-10-09 03:00:00 9.9 4 Oeste 6 Noroeste 0 -- -- 80
2017-10-09 02:00:00 10.9 5 Noroeste 6 Noroeste 0 -- -- 77
2017-10-09 01:00:00 12.3 2 Nordeste 6 Nordeste 0 -- -- 71
2017-10-09 00:00:00 14.6 3 Noroeste 10 Nordeste 0 -- -- 64
2017-10-08 23:00:00 15.3 3 Este 14 Nordeste 0 -- -- 63
2017-10-08 22:00:00 17.4 4 Nordeste 7 Nordeste 0 -- -- 53
2017-10-08 21:00:00 18.8 3 Oeste 5 Oeste 0 -- -- 50
2017-10-08 20:00:00 20.4 0 Calma 8 Nordeste 0 -- -- 45
2017-10-08 19:00:00 23.6 6 Nordeste 11 Nordeste 0 -- -- 37
2017-10-08 18:00:00 24.6 6 Nordeste 15 Nordeste 0 -- -- 36
2017-10-08 17:00:00 25.5 6 Norte 20 Noroeste 0 -- -- 33
2017-10-08 16:00:00 24.6 5 Nordeste 21 Nordeste 0 -- -- 35
2017-10-08 15:00:00 24.2 9 Este 16 Este 0 -- -- 40
2017-10-08 14:00:00 22.4 6 Oeste 19 Sudoeste 0 -- -- 48
2017-10-08 13:00:00 20.1 8 Este 13 Este 0 -- -- 57
2017-10-08 12:00:00 17.2 5 Este 13 Nordeste 0 -- -- 65
2017-10-08 11:00:00 14.8 8 Nordeste 12 Nordeste 0 -- -- 74
2017-10-08 10:00:00 12 4 Este 8 Oeste 0 -- -- 85
2017-10-08 09:00:00 9.4 5 Oeste 9 Oeste 0 -- -- 94
2017-10-08 08:00:00 8.5 6 Noroeste 9 Noroeste 0 -- -- 93
2017-10-08 07:00:00 8.9 3 Oeste 7 Sudoeste 0 -- -- 92
2017-10-08 06:00:00 9.1 3 Oeste 5 Nordeste 0 -- -- 92
2017-10-08 05:00:00 9.9 0 Calma 6 Oeste 0 -- -- 92
2017-10-08 04:00:00 10 3 Oeste 5 Noroeste 0 -- -- 91
2017-10-08 03:00:00 10.7 0 Calma 6 Nordeste 0 -- -- 88
2017-10-08 02:00:00 11.9 0 Calma 4 Noroeste 0 -- -- 88
2017-10-08 01:00:00 12.7 0 Calma 6 Noroeste 0 -- -- 85
2017-10-08 00:00:00 13.5 0 Calma 6 Nordeste 0 -- -- 81
2017-10-07 23:00:00 15 3 Nordeste 7 Noroeste 0 -- -- 75
2017-10-07 22:00:00 17.2 2 Sudoeste 9 Oeste 0 -- -- 68
2017-10-07 21:00:00 18.5 4 Este 17 Sur 0 -- -- 64
2017-10-07 20:00:00 20.3 7 Sudeste 16 Este 0 -- -- 58
2017-10-07 19:00:00 22.6 12 Este 18 Sudeste 0 -- -- 45
2017-10-07 18:00:00 24 9 Sur 21 Oeste 0 -- -- 36
2017-10-07 17:00:00 23.8 9 Sudeste 20 Este 0 -- -- 38
2017-10-07 16:00:00 23.2 9 Sur 21 Sur 0 -- -- 39
2017-10-07 15:00:00 21.9 5 Sudoeste 23 Sudeste 0 -- -- 40
2017-10-07 14:00:00 20.4 8 Este 16 Sudeste 0 -- -- 45
2017-10-07 13:00:00 18.8 8 Sudeste 13 Nordeste 0 -- -- 49
2017-10-07 12:00:00 16.5 7 Nordeste 14 Nordeste 0 -- -- 56
2017-10-07 11:00:00 15.3 7 Sudeste 10 Sudeste 0 -- -- 58
2017-10-07 10:00:00 12.9 5 Sudoeste 10 Sudoeste 0 -- -- 67
2017-10-07 09:00:00 9.8 6 Oeste 17 Sudoeste 0 -- -- 77
2017-10-07 08:00:00 9.1 10 Oeste 13 Oeste 0 -- -- 79
2017-10-07 07:00:00 10.2 11 Sudoeste 21 Sudoeste 0 -- -- 77
2017-10-07 06:00:00 10.6 12 Sudoeste 21 Sudoeste 0 -- -- 75
2017-10-07 05:00:00 12.3 13 Sudoeste 21 Sudoeste 0 -- -- 70
2017-10-07 04:00:00 11.4 11 Sudoeste 17 Sudoeste 0 -- -- 76
2017-10-07 03:00:00 12.6 12 Sudoeste 19 Sudoeste 0 -- -- 72
2017-10-07 02:00:00 13.6 11 Sudoeste 15 Oeste 0 -- -- 69
2017-10-07 01:00:00 14.5 11 Sudoeste 17 Oeste 0 -- -- 65
2017-10-07 00:00:00 15.7 10 Sudoeste 19 Sudoeste 0 -- -- 62
2017-10-06 23:00:00 17 13 Sudoeste 22 Sudoeste 0 -- -- 58
2017-10-06 22:00:00 18.6 10 Sudoeste 19 Sudoeste 0 -- -- 54
2017-10-06 21:00:00 20.6 11 Oeste 27 Oeste 0 -- -- 48
2017-10-06 20:00:00 22.4 15 Oeste 37 Oeste 0 -- -- 48
2017-10-06 19:00:00 25.3 26 Oeste 38 Oeste 0 -- -- 40
2017-10-06 18:00:00 28 19 Oeste 31 Oeste 0 -- -- 37
2017-10-06 17:00:00 28.6 15 Oeste 26 Oeste 0 -- -- 33
2017-10-06 16:00:00 27.9 12 Oeste 23 Oeste 0 -- -- 34
2017-10-06 15:00:00 26.9 8 Oeste 23 Sudoeste 0 -- -- 33
2017-10-06 14:00:00 25.1 10 Noroeste 24 Oeste 0 -- -- 36
2017-10-06 13:00:00 23.3 9 Oeste 24 Noroeste 0 -- -- 41
2017-10-06 12:00:00 20.7 12 Noroeste 23 Noroeste 0 -- -- 46
2017-10-06 11:00:00 18.5 15 Oeste 24 Oeste 0 -- -- 53
2017-10-06 10:00:00 16.6 13 Oeste 18 Oeste 0 -- -- 66
2017-10-06 09:00:00 14.2 8 Sudoeste 17 Sudoeste 0 -- -- 81
2017-10-06 08:00:00 13.4 11 Sudoeste 16 Sudoeste 0 -- -- 83
2017-10-06 07:00:00 13.9 8 Oeste 14 Sudoeste 0 -- -- 81
2017-10-06 06:00:00 14.7 5 Sudoeste 13 Sudoeste 0 -- -- 80
2017-10-06 05:00:00 14.9 6 Sudoeste 15 Sudoeste 0 -- -- 81
2017-10-06 04:00:00 15.4 10 Sudoeste 15 Sudoeste 0 -- -- 79
2017-10-06 03:00:00 16.3 10 Sudoeste 18 Sudoeste 0 -- -- 77
2017-10-06 02:00:00 17.1 13 Sudoeste 20 Sudoeste 0 -- -- 74
2017-10-06 01:00:00 18 14 Sudoeste 21 Sudoeste 0 -- -- 71
2017-10-06 00:00:00 19.1 13 Sudoeste 19 Oeste 0 -- -- 68
2017-10-05 23:00:00 20.1 7 Oeste 16 Sudoeste 0 -- -- 63
2017-10-05 22:00:00 21.2 4 Oeste 8 Noroeste 0 -- -- 61
2017-10-05 21:00:00 23 3 Oeste 12 Sudoeste 0 -- -- 61
2017-10-05 20:00:00 25 4 Noroeste 8 Oeste 0 -- -- 56
2017-10-05 19:00:00 28.3 4 Sudeste 10 Nordeste 0 -- -- 47
2017-10-05 18:00:00 28.8 8 Este 13 Este 0 -- -- 47
2017-10-05 17:00:00 28.9 7 Nordeste 13 Este 0 -- -- 47
2017-10-05 16:00:00 28.5 8 Este 16 Este 0 -- -- 50
2017-10-05 15:00:00 27.1 9 Este 15 Este 0 -- -- 54
2017-10-05 14:00:00 25.4 8 Este 14 Este 0 -- -- 59
2017-10-05 13:00:00 23.8 8 Nordeste 13 Este 0 -- -- 65
2017-10-05 12:00:00 22 6 Este 14 Este 0 -- -- 71
2017-10-05 11:00:00 19.9 9 Nordeste 14 Nordeste 0 -- -- 79
2017-10-05 10:00:00 16.4 5 Este 9 Nordeste 0 -- -- 90
2017-10-05 09:00:00 14.5 0 Calma 4 Oeste 0 -- -- 96
2017-10-05 08:00:00 13.5 3 Nordeste 8 Nordeste 0 -- -- 95
2017-10-05 07:00:00 14.1 2 Oeste 6 Oeste 0 -- -- 95
2017-10-05 06:00:00 14.1 0 Calma 4 Oeste 0 -- -- 93
2017-10-05 05:00:00 14.7 0 Calma 5 Noroeste 0 -- -- 92
2017-10-05 04:00:00 15.1 2 Este 6 Este 0 -- -- 91
2017-10-05 03:00:00 16.2 0 Calma 5 Noroeste 0 -- -- 91
2017-10-05 02:00:00 17.1 0 Calma 4 Noroeste 0 -- -- 90
2017-10-05 01:00:00 17.6 0 Calma 4 Este 0 -- -- 86
2017-10-05 00:00:00 18.3 2 Este 5 Nordeste 0 -- -- 84
2017-10-04 23:00:00 20.1 0 Calma 0 Calma 0 -- -- 78
2017-10-04 22:00:00 21 0 Calma 5 Oeste 0 -- -- 74
2017-10-04 21:00:00 22.3 0 Calma 9 Este 0 -- -- 69
2017-10-04 20:00:00 24.2 8 Este 13 Este 0 -- -- 57
2017-10-04 19:00:00 25.8 5 Nordeste 13 Nordeste 0 -- -- 51
2017-10-04 18:00:00 27.2 8 Nordeste 15 Nordeste 0 -- -- 48
2017-10-04 17:00:00 27.5 7 Nordeste 14 Este 0 -- -- 48
2017-10-04 16:00:00 27.2 8 Este 18 Este 0 -- -- 50
2017-10-04 15:00:00 26.2 8 Nordeste 15 Este 0 -- -- 55
2017-10-04 14:00:00 24.4 5 Nordeste 16 Nordeste 0 -- -- 61
2017-10-04 13:00:00 22.9 9 Nordeste 17 Nordeste 0 -- -- 67
2017-10-04 12:00:00 20.5 8 Nordeste 15 Nordeste 0 -- -- 75
2017-10-04 11:00:00 19 7 Nordeste 13 Sudoeste 0 -- -- 83
2017-10-04 10:00:00 16.8 5 Sur 11 Sudeste 0 -- -- 92
2017-10-04 09:00:00 14.9 2 Nordeste 6 Oeste 0 -- -- 95
2017-10-04 08:00:00 14.1 3 Oeste 6 Noroeste 0 -- -- 95
2017-10-04 07:00:00 14.6 3 Oeste 7 Oeste 0 -- -- 94
2017-10-04 06:00:00 14.4 2 Oeste 4 Noroeste 0 -- -- 94
2017-10-04 05:00:00 14.4 0 Calma 7 Noroeste 0 -- -- 93
2017-10-04 04:00:00 15.1 6 Oeste 8 Oeste 0 -- -- 94
2017-10-04 03:00:00 15.3 0 Calma 4 Este 0 -- -- 91
2017-10-04 02:00:00 16.3 3 Nordeste 12 Sudoeste 0 -- -- 88
2017-10-04 01:00:00 16.5 5 Oeste 7 Oeste 0 -- -- 90
2017-10-04 00:00:00 17.1 4 Oeste 9 Este 0 -- -- 87
2017-10-03 23:00:00 17.9 4 Noroeste 8 Este 0 -- -- 85
2017-10-03 22:00:00 18.9 5 Noroeste 8 Oeste 0 -- -- 80
2017-10-03 21:00:00 19.6 3 Oeste 7 Oeste 0 -- -- 77
2017-10-03 20:00:00 21.5 3 Oeste 6 Nordeste 0 -- -- 71
2017-10-03 19:00:00 23.6 5 Nordeste 9 Nordeste 0 -- -- 64
2017-10-03 18:00:00 24.6 5 Oeste 15 Oeste 0 -- -- 61
2017-10-03 17:00:00 24.6 10 Oeste 19 Oeste 0 -- -- 60
2017-10-03 16:00:00 24.7 6 Norte 17 Norte 0 -- -- 63
2017-10-03 15:00:00 23.2 7 Nordeste 19 Oeste 0 -- -- 67
2017-10-03 14:00:00 23.2 4 Nordeste 14 Este 0 -- -- 66
2017-10-03 13:00:00 21.8 8 Nordeste 12 Este 0 -- -- 73
2017-10-03 12:00:00 20.6 6 Sudeste 11 Sur 0 -- -- 79
2017-10-03 11:00:00 17.5 3 Nordeste 8 Nordeste 0 -- -- 90
2017-10-03 10:00:00 16.4 2 Nordeste 6 Nordeste 0 -- -- 92
2017-10-03 09:00:00 15.2 3 Nordeste 4 Nordeste 0 -- -- 93
2017-10-03 08:00:00 14.9 4 Oeste 5 Noroeste 0 -- -- 95
2017-10-03 07:00:00 14.8 4 Oeste 7 Oeste 0 -- -- 94
2017-10-03 06:00:00 15.2 0 Calma 4 Oeste 0 -- -- 93
2017-10-03 05:00:00 15.7 2 Noroeste 4 Noroeste 0 -- -- 92
2017-10-03 04:00:00 16.4 0 Calma 7 Noroeste 0 -- -- 89
2017-10-03 03:00:00 16.8 3 Noroeste 8 Noroeste 0 -- -- 88
2017-10-03 02:00:00 18.1 0 Calma 7 Sudeste 0 -- -- 84
2017-10-03 01:00:00 19 0 Calma 8 Sudeste 0 -- -- 81
2017-10-03 00:00:00 20.6 3 Oeste 12 Sudoeste 0 -- -- 76
2017-10-02 23:00:00 21.4 4 Sur 13 Nordeste 0 -- -- 72
2017-10-02 22:00:00 21.6 3 Nordeste 13 Este 0 -- -- 70
2017-10-02 21:00:00 23.1 3 Este 13 Nordeste 0 -- -- 64
2017-10-02 20:00:00 24.5 3 Oeste 17 Este 0 -- -- 58
2017-10-02 19:00:00 26.2 12 Este 19 Nordeste 0 -- -- 51
2017-10-02 18:00:00 27.2 13 Este 18 Nordeste 0 -- -- 49
2017-10-02 17:00:00 27.9 6 Oeste 17 Sur 0 -- -- 46
2017-10-02 16:00:00 26.6 8 Nordeste 18 Este 0 -- -- 52
2017-10-02 15:00:00 25.9 9 Este 17 Este 0 -- -- 55
2017-10-02 14:00:00 24.6 9 Nordeste 17 Este 0 -- -- 59
2017-10-02 13:00:00 23.5 6 Sur 12 Sudeste 0 -- -- 61
2017-10-02 12:00:00 21.2 9 Este 13 Este 0 -- -- 72
2017-10-02 11:00:00 19.8 6 Este 10 Este 0 -- -- 76
2017-10-02 10:00:00 17.1 7 Nordeste 9 Nordeste 0 -- -- 86
2017-10-02 09:00:00 15.5 0 Calma 8 Oeste 0 -- -- 90
2017-10-02 08:00:00 15.3 5 Oeste 13 Sudoeste 0 -- -- 91
2017-10-02 07:00:00 15.4 6 Noroeste 8 Oeste 0 -- -- 90
2017-10-02 06:00:00 16.2 0 Calma 8 Oeste 0 -- -- 88
2017-10-02 05:00:00 16.8 7 Oeste 12 Oeste 0 -- -- 87
2017-10-02 04:00:00 17.1 8 Oeste 9 Oeste 0 -- -- 85
2017-10-02 03:00:00 17.7 4 Sudoeste 9 Oeste 0 -- -- 82
2017-10-02 02:00:00 18.8 5 Sudoeste 10 Sudoeste 0 -- -- 78
2017-10-02 01:00:00 18.3 5 Oeste 10 Oeste 0 -- -- 76
2017-10-02 00:00:00 18.6 8 Oeste 12 Sudoeste 0 -- -- 72
2017-10-01 23:00:00 17.7 6 Oeste 10 Oeste 0 -- -- 76
2017-10-01 22:00:00 19 7 Oeste 13 Oeste 0 -- -- 70
2017-10-01 21:00:00 19 2 Noroeste 6 Noroeste 0 -- -- 69
2017-10-01 20:00:00 20.6 2 Este 8 Este 0 -- -- 62
2017-10-01 19:00:00 21.6 6 Nordeste 8 Este 0 -- -- 57
2017-10-01 18:00:00 21.9 4 Este 10 Noroeste 0 -- -- 55
2017-10-01 17:00:00 21.9 7 Oeste 14 Nordeste 0 -- -- 54
2017-10-01 16:00:00 22.1 8 Nordeste 16 Nordeste 0 -- -- 63
2017-10-01 15:00:00 22 9 Nordeste 17 Nordeste 0 -- -- 64
2017-10-01 14:00:00 21.3 6 Norte 15 Noroeste 0 -- -- 64
2017-10-01 13:00:00 20.3 11 Oeste 21 Noroeste 0 -- -- 65
2017-10-01 12:00:00 19.5 10 Noroeste 22 Noroeste 0 -- -- 66
2017-10-01 11:00:00 17.6 5 Noroeste 12 Oeste 0 -- -- 73
2017-10-01 10:00:00 16.3 3 Este 12 Sudoeste 0 -- -- 81
2017-10-01 09:00:00 15.4 9 Sudoeste 13 Sudoeste 0 -- -- 83
2017-10-01 08:00:00 15.2 7 Oeste 13 Sudoeste 0 -- -- 86
2017-10-01 07:00:00 15.2 8 Oeste 11 Sudoeste 0 -- -- 89
2017-10-01 06:00:00 15.6 0 Calma 11 Sudoeste 0 -- -- 86
2017-10-01 05:00:00 16 4 Sudoeste 11 Oeste 0 -- -- 89
2017-10-01 04:00:00 16.8 0 Calma 14 Sudoeste 0 -- -- 87
2017-10-01 03:00:00 17.4 6 Oeste 15 Oeste 0 -- -- 86
2017-10-01 02:00:00 18.1 8 Sudoeste 15 Sudoeste 0 -- -- 84
2017-10-01 01:00:00 18.2 6 Oeste 12 Sudoeste 0 -- -- 84
2017-10-01 00:00:00 17.6 3 Noroeste 5 Noroeste 0 -- -- 88
2017-09-30 23:00:00 17.7 3 Noroeste 6 Noroeste 0 -- -- 87
2017-09-30 22:00:00 17.7 0 Calma 5 Noroeste 0 -- -- 86
2017-09-30 21:00:00 18.4 0 Calma 5 Noroeste 0 -- -- 83
2017-09-30 20:00:00 19.7 3 Nordeste 7 Nordeste 0 -- -- 77
2017-09-30 19:00:00 20.3 5 Nordeste 9 Este 0 -- -- 74
2017-09-30 18:00:00 20.5 6 Nordeste 9 Nordeste 0 -- -- 74
2017-09-30 17:00:00 20.6 5 Nordeste 15 Este 0 -- -- 73
2017-09-30 16:00:00 19.8 6 Sudeste 11 Sudeste 0 -- -- 82
2017-09-30 15:00:00 19.8 3 Este 8 Este 0.2 -- -- 81
2017-09-30 14:00:00 19.7 2 Sudeste 8 Este 0 -- -- 78
2017-09-30 13:00:00 19.5 4 Nordeste 15 Norte 0 -- -- 79
2017-09-30 12:00:00 19.5 9 Noroeste 15 Noroeste 0 -- -- 78
2017-09-30 11:00:00 17 7 Nordeste 13 Nordeste 0 -- -- 89
2017-09-30 10:00:00 15.2 4 Este 6 Nordeste 0 -- -- 94
2017-09-30 09:00:00 14.4 0 Calma 5 Nordeste 0 -- -- 95
2017-09-30 08:00:00 14 2 Sur 8 Noroeste 0 -- -- 95
2017-09-30 07:00:00 13.8 0 Calma 5 Noroeste 0 -- -- 94
2017-09-30 06:00:00 13.9 2 Este 5 Este 0 -- -- 93
2017-09-30 05:00:00 15.2 0 Calma 4 Oeste 0 -- -- 92
2017-09-30 04:00:00 15.8 0 Calma 6 Nordeste 0 -- -- 89
2017-09-30 03:00:00 16.9 0 Calma 12 Nordeste 0 -- -- 88
2017-09-30 02:00:00 17.1 5 Este 12 Este 0 -- -- 86
2017-09-30 01:00:00 17.1 3 Noroeste 8 Nordeste 0 -- -- 87
2017-09-30 00:00:00 18.4 2 Oeste 6 Sudoeste 0 -- -- 81
2017-09-29 23:00:00 18.9 4 Noroeste 8 Noroeste 0 -- -- 79
2017-09-29 22:00:00 20.8 0 Calma 10 Nordeste 0 -- -- 73
2017-09-29 21:00:00 22.6 5 Nordeste 15 Nordeste 0 -- -- 67
2017-09-29 20:00:00 24.7 9 Este 14 Este 0 -- -- 53
2017-09-29 19:00:00 26.6 6 Nordeste 11 Este 0 -- -- 47
2017-09-29 18:00:00 27.4 9 Este 17 Este 0 -- -- 44
2017-09-29 17:00:00 27.6 11 Este 18 Este 0 -- -- 46
2017-09-29 16:00:00 27.1 15 Este 21 Este 0 -- -- 49
2017-09-29 15:00:00 26 13 Este 22 Nordeste 0 -- -- 52
2017-09-29 14:00:00 25.1 11 Nordeste 22 Este 0 -- -- 56
2017-09-29 13:00:00 23.8 12 Este 20 Nordeste 0 -- -- 61
2017-09-29 12:00:00 21.4 8 Este 14 Este 0 -- -- 72
2017-09-29 11:00:00 18.8 5 Este 11 Nordeste 0 -- -- 80
2017-09-29 10:00:00 16.5 6 Este 11 Nordeste 0 -- -- 90
2017-09-29 09:00:00 14 3 Este 5 Este 0 -- -- 95
2017-09-29 08:00:00 13.3 3 Noroeste 5 Noroeste 0 -- -- 95
2017-09-29 07:00:00 13.4 0 Calma 5 Nordeste 0 -- -- 94
2017-09-29 06:00:00 14.2 2 Oeste 4 Nordeste 0 -- -- 93
2017-09-29 05:00:00 14.6 3 Nordeste 5 Nordeste 0 -- -- 92
2017-09-29 04:00:00 15.4 0 Calma 4 Este 0 -- -- 91
2017-09-29 03:00:00 16.8 0 Calma 12 Este 0 -- -- 85
2017-09-29 02:00:00 17.3 2 Este 14 Nordeste 0 -- -- 87
2017-09-29 01:00:00 17.4 0 Calma 6 Nordeste 0 -- -- 85
2017-09-29 00:00:00 17.9 0 Calma 6 Nordeste 0 -- -- 84
2017-09-28 23:00:00 19.8 4 Este 9 Sudoeste 0 -- -- 77
2017-09-28 22:00:00 21 5 Oeste 12 Sur 0 -- -- 73
2017-09-28 21:00:00 22.3 5 Sudeste 18 Este 0 -- -- 68
2017-09-28 20:00:00 24.2 10 Sudeste 22 Este 0 -- -- 61
2017-09-28 19:00:00 26.2 15 Este 26 Este 0 -- -- 52
2017-09-28 18:00:00 27.5 12 Este 23 Este 0 -- -- 46
2017-09-28 17:00:00 27.6 13 Nordeste 23 Este 0 -- -- 49
2017-09-28 16:00:00 27.4 13 Este 24 Este 0 -- -- 48
2017-09-28 15:00:00 26.3 16 Este 25 Este 0 -- -- 54
2017-09-28 14:00:00 25.2 13 Este 24 Este 0 -- -- 60
2017-09-28 13:00:00 24.2 16 Este 24 Este 0 -- -- 64
2017-09-28 12:00:00 21.7 8 Este 13 Nordeste 0 -- -- 71
2017-09-28 11:00:00 19.5 5 Este 11 Nordeste 0 -- -- 77
2017-09-28 10:00:00 16.9 6 Este 11 Este 0 -- -- 87
2017-09-28 09:00:00 14.2 3 Este 5 Sudeste 0 -- -- 94
2017-09-28 08:00:00 13.2 0 Calma 6 Noroeste 0 -- -- 95
2017-09-28 07:00:00 13.8 2 Oeste 6 Noroeste 0 -- -- 94
2017-09-28 06:00:00 14.3 0 Calma 4 Noroeste 0 -- -- 93
2017-09-28 05:00:00 14.6 2 Este 5 Oeste 0 -- -- 92
2017-09-28 04:00:00 15.7 0 Calma 4 Oeste 0 -- -- 90
2017-09-28 03:00:00 16.5 0 Calma 8 Norte 0 -- -- 89
2017-09-28 02:00:00 17.3 5 Nordeste 10 Nordeste 0 -- -- 87
2017-09-28 01:00:00 17 0 Calma 6 Norte 0 -- -- 87
2017-09-28 00:00:00 18.1 0 Calma 7 Oeste 0 -- -- 83
2017-09-27 23:00:00 19.7 2 Sudoeste 9 Sudoeste 0 -- -- 78
2017-09-27 22:00:00 20.9 4 Sudoeste 15 Sudeste 0 -- -- 73
2017-09-27 21:00:00 22.2 4 Sur 14 Este 0 -- -- 67
2017-09-27 20:00:00 23.8 7 Este 22 Este 0 -- -- 59
2017-09-27 19:00:00 25.6 18 Este 31 Este 0 -- -- 52
2017-09-27 18:00:00 26.5 15 Este 22 Nordeste 0 -- -- 47
2017-09-27 17:00:00 26.6 13 Este 22 Este 0 -- -- 47
2017-09-27 16:00:00 26.1 11 Este 21 Este 0 -- -- 50
2017-09-27 15:00:00 25.4 10 Este 18 Nordeste 0 -- -- 53
2017-09-27 14:00:00 24.5 9 Nordeste 18 Nordeste 0 -- -- 58
2017-09-27 13:00:00 22.6 7 Nordeste 14 Este 0 -- -- 65
2017-09-27 12:00:00 20.8 6 Nordeste 14 Nordeste 0 -- -- 73
2017-09-27 11:00:00 18.5 6 Este 11 Este 0 -- -- 78
2017-09-27 10:00:00 15.8 3 Este 8 Este 0 -- -- 87
2017-09-27 09:00:00 13.5 2 Este 5 Noroeste 0 -- -- 94
2017-09-27 08:00:00 11.9 0 Calma 6 Nordeste 0 -- -- 94
2017-09-27 07:00:00 12.7 2 Oeste 7 Oeste 0 -- -- 94
2017-09-27 06:00:00 12.8 0 Calma 4 Noroeste 0 -- -- 93
2017-09-27 05:00:00 13.6 3 Noroeste 4 Oeste 0 -- -- 92
2017-09-27 04:00:00 14.4 2 Sur 4 Sudoeste 0 -- -- 91
2017-09-27 03:00:00 14.9 0 Calma 3 Nordeste 0 -- -- 90
2017-09-27 02:00:00 15.1 0 Calma 6 Nordeste 0 -- -- 89
2017-09-27 01:00:00 15.8 3 Oeste 6 Noroeste 0 -- -- 86
2017-09-27 00:00:00 17.2 2 Este 9 Oeste 0 -- -- 80
2017-09-26 23:00:00 18.2 5 Oeste 8 Oeste 0 -- -- 77
2017-09-26 22:00:00 19.4 2 Norte 13 Este 0 -- -- 72
2017-09-26 21:00:00 19.8 2 Noroeste 6 Nordeste 0 -- -- 64
2017-09-26 20:00:00 22.2 2 Sudeste 14 Este 0 -- -- 55
2017-09-26 19:00:00 23.8 10 Este 14 Este 0 -- -- 49
2017-09-26 18:00:00 24.4 8 Este 12 Este 0 -- -- 48
2017-09-26 17:00:00 24.7 4 Sudeste 16 Nordeste 0 -- -- 49
2017-09-26 16:00:00 23.6 8 Nordeste 15 Este 0 -- -- 51
2017-09-26 15:00:00 22.9 9 Este 15 Nordeste 0 -- -- 54
2017-09-26 14:00:00 -- -- -- -- -- -- -- -- --
2017-09-26 13:00:00 -- -- -- -- -- -- -- -- --
2017-09-26 12:00:00 -- -- -- -- -- -- -- -- --
2017-09-26 11:00:00 -- -- -- -- -- -- -- -- --
2017-09-26 10:00:00 -- -- -- -- -- -- -- -- --
2017-09-26 09:00:00 -- -- -- -- -- -- -- -- --
2017-09-26 08:00:00 -- -- -- -- -- -- -- -- --
2017-09-26 07:00:00 -- -- -- -- -- -- -- -- --
2017-09-26 06:00:00 -- -- -- -- -- -- -- -- --
2017-09-26 05:00:00 -- -- -- -- -- -- -- -- --
2017-09-26 04:00:00 -- -- -- -- -- -- -- -- --
2017-09-26 03:00:00 -- -- -- -- -- -- -- -- --
2017-09-26 02:00:00 -- -- -- -- -- -- -- -- --
2017-09-26 01:00:00 -- -- -- -- -- -- -- -- --
2017-09-26 00:00:00 -- -- -- -- -- -- -- -- --
2017-09-25 23:00:00 -- -- -- -- -- -- -- -- --
2017-09-25 22:00:00 -- -- -- -- -- -- -- -- --
2017-09-25 21:00:00 -- -- -- -- -- -- -- -- --
2017-09-25 20:00:00 -- -- -- -- -- -- -- -- --
2017-09-25 19:00:00 -- -- -- -- -- -- -- -- --
2017-09-25 18:00:00 -- -- -- -- -- -- -- -- --
2017-09-25 17:00:00 -- -- -- -- -- -- -- -- --
2017-09-25 16:00:00 -- -- -- -- -- -- -- -- --
2017-09-25 15:00:00 -- -- -- -- -- -- -- -- --
2017-09-25 14:00:00 -- -- -- -- -- -- -- -- --
2017-09-25 13:00:00 -- -- -- -- -- -- -- -- --
2017-09-25 12:00:00 -- -- -- -- -- -- -- -- --
2017-09-25 11:00:00 -- -- -- -- -- -- -- -- --
2017-09-25 10:00:00 -- -- -- -- -- -- -- -- --
2017-09-25 09:00:00 -- -- -- -- -- -- -- -- --
2017-09-25 08:00:00 -- -- -- -- -- -- -- -- --
2017-09-25 07:00:00 -- -- -- -- -- -- -- -- --
2017-09-25 06:00:00 -- -- -- -- -- -- -- -- --
2017-09-25 05:00:00 -- -- -- -- -- -- -- -- --
2017-09-25 04:00:00 -- -- -- -- -- -- -- -- --
2017-09-25 03:00:00 -- -- -- -- -- -- -- -- --
2017-09-25 02:00:00 -- -- -- -- -- -- -- -- --
2017-09-25 01:00:00 -- -- -- -- -- -- -- -- --
2017-09-25 00:00:00 -- -- -- -- -- -- -- -- --
2017-09-24 23:00:00 -- -- -- -- -- -- -- -- --
2017-09-24 22:00:00 -- -- -- -- -- -- -- -- --
2017-09-24 21:00:00 -- -- -- -- -- -- -- -- --
2017-09-24 20:00:00 -- -- -- -- -- -- -- -- --
2017-09-24 19:00:00 -- -- -- -- -- -- -- -- --
2017-09-24 18:00:00 -- -- -- -- -- -- -- -- --
2017-09-24 17:00:00 -- -- -- -- -- -- -- -- --
2017-09-24 16:00:00 -- -- -- -- -- -- -- -- --
2017-09-24 15:00:00 -- -- -- -- -- -- -- -- --
2017-09-24 14:00:00 -- -- -- -- -- -- -- -- --
2017-09-24 13:00:00 -- -- -- -- -- -- -- -- --
2017-09-24 12:00:00 -- -- -- -- -- -- -- -- --
2017-09-24 11:00:00 -- -- -- -- -- -- -- -- --
2017-09-24 10:00:00 -- -- -- -- -- -- -- -- --
2017-09-24 09:00:00 -- -- -- -- -- -- -- -- --
2017-09-24 08:00:00 -- -- -- -- -- -- -- -- --
2017-09-24 07:00:00 -- -- -- -- -- -- -- -- --
2017-09-24 06:00:00 -- -- -- -- -- -- -- -- --
2017-09-24 05:00:00 -- -- -- -- -- -- -- -- --
2017-09-24 04:00:00 -- -- -- -- -- -- -- -- --
2017-09-24 03:00:00 -- -- -- -- -- -- -- -- --
2017-09-24 02:00:00 -- -- -- -- -- -- -- -- --
2017-09-24 01:00:00 -- -- -- -- -- -- -- -- --
2017-09-24 00:00:00 -- -- -- -- -- -- -- -- --
2017-09-23 23:00:00 -- -- -- -- -- -- -- -- --
2017-09-23 22:00:00 -- -- -- -- -- -- -- -- --
2017-09-23 21:00:00 -- -- -- -- -- -- -- -- --
2017-09-23 20:00:00 -- -- -- -- -- -- -- -- --
2017-09-23 19:00:00 -- -- -- -- -- -- -- -- --
2017-09-23 18:00:00 -- -- -- -- -- -- -- -- --
2017-09-23 17:00:00 -- -- -- -- -- -- -- -- --
2017-09-23 16:00:00 -- -- -- -- -- -- -- -- --
2017-09-23 15:00:00 -- -- -- -- -- -- -- -- --
2017-09-23 14:00:00 -- -- -- -- -- -- -- -- --
2017-09-23 13:00:00 -- -- -- -- -- -- -- -- --
2017-09-23 12:00:00 -- -- -- -- -- -- -- -- --
2017-09-23 11:00:00 -- -- -- -- -- -- -- -- --
2017-09-23 10:00:00 -- -- -- -- -- -- -- -- --
2017-09-23 09:00:00 -- -- -- -- -- -- -- -- --
2017-09-23 08:00:00 -- -- -- -- -- -- -- -- --
2017-09-23 07:00:00 -- -- -- -- -- -- -- -- --
2017-09-23 06:00:00 -- -- -- -- -- -- -- -- --
2017-09-23 05:00:00 -- -- -- -- -- -- -- -- --
2017-09-23 04:00:00 -- -- -- -- -- -- -- -- --
2017-09-23 03:00:00 -- -- -- -- -- -- -- -- --
2017-09-23 02:00:00 -- -- -- -- -- -- -- -- --
2017-09-23 01:00:00 -- -- -- -- -- -- -- -- --
2017-09-23 00:00:00 -- -- -- -- -- -- -- -- --
2017-09-22 23:00:00 -- -- -- -- -- -- -- -- --
2017-09-22 22:00:00 -- -- -- -- -- -- -- -- --
2017-09-22 21:00:00 -- -- -- -- -- -- -- -- --
2017-09-22 20:00:00 -- -- -- -- -- -- -- -- --
2017-09-22 19:00:00 -- -- -- -- -- -- -- -- --
2017-09-22 18:00:00 -- -- -- -- -- -- -- -- --
2017-09-22 17:00:00 -- -- -- -- -- -- -- -- --
2017-09-22 16:00:00 -- -- -- -- -- -- -- -- --
2017-09-22 15:00:00 -- -- -- -- -- -- -- -- --
2017-09-22 14:00:00 -- -- -- -- -- -- -- -- --
2017-09-22 13:00:00 -- -- -- -- -- -- -- -- --
2017-09-22 12:00:00 -- -- -- -- -- -- -- -- --
2017-09-22 11:00:00 19.1 5 Oeste 9 Noroeste 0 -- -- 82
2017-09-22 10:00:00 17.9 4 Este 8 Nordeste 0 -- -- 88
2017-09-22 09:00:00 17 3 Nordeste 6 Nordeste 0 -- -- 90
2017-09-22 08:00:00 16.1 4 Nordeste 9 Nordeste 0 -- -- 91
2017-09-22 07:00:00 16.5 3 Nordeste 7 Norte 0 -- -- 91
2017-09-22 06:00:00 16.6 0 Calma 8 Este 0 -- -- 89
2017-09-22 05:00:00 17.2 3 Nordeste 13 Nordeste 0 -- -- 88
2017-09-22 04:00:00 18.2 4 Nordeste 9 Este 0 -- -- 85
2017-09-22 03:00:00 17.9 4 Nordeste 10 Nordeste 0 -- -- 86
2017-09-22 02:00:00 18.4 8 Nordeste 15 Este 0 -- -- 85
2017-09-22 01:00:00 18.1 2 Este 5 Nordeste 0 -- -- 85
2017-09-22 00:00:00 18.3 0 Calma 3 Oeste 0 -- -- 83
2017-09-21 23:00:00 19.8 2 Oeste 5 Nordeste 0 -- -- 77
2017-09-21 22:00:00 21.6 2 Sudoeste 13 Sudeste 0 -- -- 70
2017-09-21 21:00:00 23 5 Sudeste 16 Sudeste 0 -- -- 65
2017-09-21 20:00:00 25.1 8 Sudeste 21 Sudeste 0 -- -- 57
2017-09-21 19:00:00 27 12 Sudeste 26 Este 0 -- -- 50
2017-09-21 18:00:00 27.4 9 Este 18 Este 0 -- -- 48
2017-09-21 17:00:00 27.1 9 Este 24 Este 0 -- -- 48
2017-09-21 16:00:00 26.8 13 Este 22 Este 0 -- -- 48
2017-09-21 15:00:00 26.1 15 Este 26 Este 0 -- -- 52
2017-09-21 14:00:00 24 12 Este 24 Este 0 -- -- 57
2017-09-21 13:00:00 22.2 9 Nordeste 14 Nordeste 0 -- -- 58
2017-09-21 12:00:00 19.5 5 Este 12 Nordeste 0 -- -- 55
2017-09-21 11:00:00 16.6 8 Nordeste 13 Nordeste 0 -- -- 60
2017-09-21 10:00:00 14.4 5 Nordeste 8 Nordeste 0 -- -- 68
2017-09-21 09:00:00 11.4 3 Este 5 Nordeste 0 -- -- 77
2017-09-21 08:00:00 10 0 Calma 5 Oeste 0 -- -- 80
2017-09-21 07:00:00 9.5 0 Calma 6 Sudoeste 0 -- -- 81
2017-09-21 06:00:00 9.6 3 Sudoeste 9 Oeste 0 -- -- 82
2017-09-21 05:00:00 9.6 3 Oeste 5 Noroeste 0 -- -- 81
2017-09-21 04:00:00 10.2 2 Oeste 6 Noroeste 0 -- -- 79
2017-09-21 03:00:00 10.8 0 Calma 5 Noroeste 0 -- -- 77
2017-09-21 02:00:00 11.4 0 Calma 6 Nordeste 0 -- -- 73
2017-09-21 01:00:00 12.8 0 Calma 4 Oeste 0 -- -- 66
2017-09-21 00:00:00 13.6 0 Calma 5 Este 0 -- -- 62
2017-09-20 23:00:00 15.1 2 Noroeste 6 Noroeste 0 -- -- 56
2017-09-20 22:00:00 16.2 4 Noroeste 6 Oeste 0 -- -- 52
2017-09-20 21:00:00 18.5 0 Calma 8 Nordeste 0 -- -- 46
2017-09-20 20:00:00 21.2 6 Nordeste 9 Nordeste 0 -- -- 40
2017-09-20 19:00:00 23 7 Nordeste 15 Este 0 -- -- 37
2017-09-20 18:00:00 23.6 10 Nordeste 18 Este 0 -- -- 35
2017-09-20 17:00:00 23.7 7 Nordeste 19 Este -- -- -- 34
2017-09-20 16:00:00 23.4 8 Nordeste 19 Este 0 -- -- 36
2017-09-20 15:00:00 22.4 9 Este 17 Este 0 -- -- 37
2017-09-20 14:00:00 21 6 Nordeste 18 Este 0 -- -- 40
2017-09-20 13:00:00 20 9 Este 17 Este 0 -- -- 43
2017-09-20 12:00:00 17.5 8 Este 12 Este 0 -- -- 48
2017-09-20 11:00:00 15.3 6 Sudeste 14 Nordeste 0 -- -- 55
2017-09-20 10:00:00 12.4 7 Nordeste 11 Sudoeste 0 -- -- 69
2017-09-20 09:00:00 10 0 Calma 5 Sur 0 -- -- 76
2017-09-20 08:00:00 7.2 0 Calma 7 Noroeste 0 -- -- 84
2017-09-20 07:00:00 7.7 5 Oeste 8 Oeste 0 -- -- 82
2017-09-20 06:00:00 8.2 5 Oeste 8 Noroeste 0 -- -- 78
2017-09-20 05:00:00 9 3 Norte 9 Oeste 0 -- -- 73
2017-09-20 04:00:00 9.7 6 Oeste 14 Oeste 0 -- -- 69
2017-09-20 03:00:00 11.2 9 Oeste 12 Oeste 0 -- -- 62
2017-09-20 02:00:00 11.9 7 Sudoeste 12 Oeste 0 -- -- 60
2017-09-20 01:00:00 13 10 Oeste 13 Oeste 0 -- -- 56
2017-09-20 00:00:00 14.7 9 Oeste 14 Oeste 0 -- -- 51